createdAt,value
2017-11-22T00:02:06.299Z,5.00
2017-11-22T00:04:32.702Z,5.00
2017-11-22T00:07:00.634Z,5.10
2017-11-22T00:09:28.477Z,5.00
2017-11-22T00:11:55.867Z,5.00
2017-11-22T00:14:23.126Z,5.10
2017-11-22T00:16:50.177Z,5.10
2017-11-22T00:19:16.500Z,5.10
2017-11-22T00:21:42.849Z,5.10
2017-11-22T00:24:09.495Z,5.10
2017-11-22T00:26:35.824Z,5.10
2017-11-22T00:29:03.089Z,5.10
2017-11-22T00:31:29.412Z,5.00
2017-11-22T00:33:56.381Z,5.00
2017-11-22T00:36:23.536Z,5.00
2017-11-22T00:38:50.475Z,4.90
2017-11-22T00:41:18.445Z,4.90
2017-11-22T00:43:44.773Z,4.80
2017-11-22T00:46:11.102Z,4.80
2017-11-22T00:48:37.958Z,4.80
2017-11-22T00:51:04.281Z,4.80
2017-11-22T00:53:31.361Z,4.80
2017-11-22T00:55:57.682Z,4.70
2017-11-22T00:58:24.008Z,4.80
2017-11-22T01:00:50.573Z,4.70
2017-11-22T01:03:16.908Z,4.70
2017-11-22T01:05:43.965Z,4.80
2017-11-22T01:08:11.055Z,4.80
2017-11-22T01:10:39.092Z,4.70
2017-11-22T01:13:05.433Z,4.70
2017-11-22T01:15:32.485Z,4.70
2017-11-22T01:17:58.787Z,4.70
2017-11-22T01:20:25.109Z,4.70
2017-11-22T01:22:51.797Z,4.80
2017-11-22T01:25:19.625Z,4.70
2017-11-22T01:27:47.125Z,4.70
2017-11-22T01:30:13.493Z,4.70
2017-11-22T01:32:40.580Z,4.70
2017-11-22T01:35:07.781Z,4.70
2017-11-22T01:37:35.036Z,4.70
2017-11-22T01:40:01.393Z,4.70
2017-11-22T01:42:29.140Z,4.60
2017-11-22T01:44:55.484Z,4.60
2017-11-22T01:47:24.068Z,4.60
2017-11-22T01:49:50.414Z,4.60
2017-11-22T01:52:17.556Z,4.60
2017-11-22T01:54:43.890Z,4.60
2017-11-22T01:57:10.905Z,4.60
2017-11-22T01:59:37.245Z,4.60
2017-11-22T02:02:03.573Z,4.60
2017-11-22T02:04:30.263Z,4.60
2017-11-22T02:06:56.569Z,4.70
2017-11-22T02:09:25.185Z,4.60
2017-11-22T02:11:52.242Z,4.60
2017-11-22T02:14:19.292Z,4.70
2017-11-22T02:16:45.604Z,4.70
2017-11-22T02:19:12.004Z,4.70
2017-11-22T02:21:39.348Z,4.70
2017-11-22T02:24:06.412Z,4.60
2017-11-22T02:26:34.245Z,4.60
2017-11-22T02:29:01.548Z,4.60
2017-11-22T02:31:28.666Z,4.60
2017-11-22T02:33:55.036Z,4.50
2017-11-22T02:36:22.162Z,4.50
2017-11-22T02:38:50.635Z,4.50
2017-11-22T02:41:18.101Z,4.50
2017-11-22T02:43:45.381Z,4.50
2017-11-22T02:46:12.444Z,4.50
2017-11-22T02:48:39.556Z,4.50
2017-11-22T02:51:06.205Z,4.50
2017-11-22T02:53:33.564Z,4.50
2017-11-22T02:55:59.927Z,4.60
2017-11-22T02:58:26.241Z,4.50
2017-11-22T03:00:52.980Z,4.50
2017-11-22T03:03:19.329Z,4.40
2017-11-22T03:05:46.589Z,4.40
2017-11-22T03:08:13.666Z,4.40
2017-11-22T03:10:41.507Z,4.40
2017-11-22T03:13:07.828Z,4.40
2017-11-22T03:15:34.176Z,4.40
2017-11-22T03:18:00.816Z,4.40
2017-11-22T03:20:27.153Z,4.40
2017-11-22T03:22:53.574Z,4.40
2017-11-22T03:25:20.649Z,4.40
2017-11-22T03:27:47.846Z,4.40
2017-11-22T03:30:14.910Z,4.40
2017-11-22T03:32:42.005Z,4.40
2017-11-22T03:35:08.333Z,4.30
2017-11-22T03:37:35.605Z,4.30
2017-11-22T03:40:01.983Z,4.30
2017-11-22T03:42:29.922Z,4.40
2017-11-22T03:44:56.273Z,4.30
2017-11-22T03:47:22.652Z,4.30
2017-11-22T03:49:55.577Z,4.30
2017-11-22T03:52:30.187Z,4.40
2017-11-22T03:54:56.585Z,4.40
2017-11-22T03:57:23.676Z,4.40
2017-11-22T03:59:50.333Z,4.40
2017-11-22T04:02:24.780Z,4.40
2017-11-22T04:04:53.214Z,4.40
2017-11-22T04:07:20.501Z,4.40
2017-11-22T04:09:47.858Z,4.30
2017-11-22T04:12:14.195Z,4.30
2017-11-22T04:14:41.245Z,4.30
2017-11-22T04:17:07.572Z,4.40
2017-11-22T04:19:38.788Z,4.30
2017-11-22T04:22:05.401Z,4.30
2017-11-22T04:24:31.713Z,4.40
2017-11-22T04:26:58.119Z,4.40
2017-11-22T04:29:25.306Z,4.40
2017-11-22T04:31:51.645Z,4.40
2017-11-22T04:34:17.975Z,4.40
2017-11-22T04:36:44.625Z,4.40
2017-11-22T04:39:12.295Z,4.50
2017-11-22T04:41:39.341Z,4.50
2017-11-22T04:44:06.317Z,4.50
2017-11-22T04:46:33.448Z,4.40
2017-11-22T04:49:00.197Z,4.50
2017-11-22T04:51:26.557Z,4.50
2017-11-22T04:53:54.420Z,4.40
2017-11-22T04:56:20.774Z,4.40
2017-11-22T04:58:47.859Z,4.40
2017-11-22T05:01:15.820Z,4.40
2017-11-22T05:03:43.746Z,4.40
2017-11-22T05:06:11.605Z,4.40
2017-11-22T05:08:37.948Z,4.40
2017-11-22T05:11:04.852Z,4.30
2017-11-22T05:13:31.205Z,4.30
2017-11-22T05:15:57.509Z,4.20
2017-11-22T05:18:25.237Z,4.20
2017-11-22T05:20:51.578Z,4.20
2017-11-22T05:23:17.929Z,4.20
2017-11-22T05:25:44.658Z,4.20
2017-11-22T05:28:11.705Z,4.20
2017-11-22T05:30:38.029Z,4.30
2017-11-22T05:33:04.353Z,4.30
2017-11-22T05:35:30.921Z,4.30
2017-11-22T05:37:58.183Z,4.20
2017-11-22T05:40:25.228Z,4.20
2017-11-22T05:42:52.180Z,4.30
2017-11-22T05:45:19.354Z,4.20
2017-11-22T05:47:46.431Z,4.20
2017-11-22T05:50:13.498Z,4.30
2017-11-22T05:52:40.502Z,4.30
2017-11-22T05:55:07.619Z,4.20
2017-11-22T05:57:34.007Z,4.30
2017-11-22T06:00:08.201Z,4.20
2017-11-22T06:02:35.362Z,4.20
2017-11-22T06:05:02.426Z,4.20
2017-11-22T06:07:28.748Z,4.20
2017-11-22T06:09:55.901Z,4.20
2017-11-22T06:12:22.245Z,4.20
2017-11-22T06:14:48.570Z,4.20
2017-11-22T06:17:15.628Z,4.20
2017-11-22T06:19:41.958Z,4.30
2017-11-22T06:22:08.285Z,4.20
2017-11-22T06:24:34.947Z,4.20
2017-11-22T06:27:01.267Z,4.30
2017-11-22T06:29:27.686Z,4.30
2017-11-22T06:31:54.053Z,4.30
2017-11-22T06:34:21.124Z,4.30
2017-11-22T06:36:47.467Z,4.30
2017-11-22T06:39:15.321Z,4.30
2017-11-22T06:41:42.573Z,4.20
2017-11-22T06:44:09.729Z,4.20
2017-11-22T06:46:36.887Z,4.30
2017-11-22T06:49:03.949Z,4.20
2017-11-22T06:51:30.308Z,4.20
2017-11-22T06:53:58.145Z,4.30
2017-11-22T06:56:25.609Z,4.20
2017-11-22T06:58:51.955Z,4.30
2017-11-22T07:01:18.891Z,4.40
2017-11-22T07:03:51.369Z,4.40
2017-11-22T07:06:17.692Z,4.40
2017-11-22T07:08:44.964Z,4.40
2017-11-22T07:11:12.143Z,4.40
2017-11-22T07:13:41.031Z,4.50
2017-11-22T07:16:07.356Z,4.50
2017-11-22T07:18:36.140Z,4.60
2017-11-22T07:21:02.474Z,4.60
2017-11-22T07:23:28.825Z,4.70
2017-11-22T07:25:55.460Z,4.70
2017-11-22T07:28:21.771Z,4.70
2017-11-22T07:30:48.852Z,4.80
2017-11-22T07:33:16.005Z,4.90
2017-11-22T07:35:48.508Z,4.90
2017-11-22T07:38:16.452Z,5.00
2017-11-22T07:40:43.542Z,5.10
2017-11-22T07:43:11.379Z,5.10
2017-11-22T07:45:39.187Z,5.10
2017-11-22T07:48:12.652Z,5.20
2017-11-22T07:50:39.724Z,5.20
2017-11-22T07:53:07.846Z,5.20
2017-11-22T07:55:34.196Z,5.20
2017-11-22T07:58:01.377Z,5.30
2017-11-22T08:00:27.740Z,5.30
2017-11-22T08:03:01.041Z,5.40
2017-11-22T08:05:29.075Z,5.40
2017-11-22T08:07:56.053Z,5.50
2017-11-22T08:10:23.108Z,5.60
2017-11-22T08:12:50.540Z,5.70
2017-11-22T08:15:16.849Z,5.60
2017-11-22T08:17:43.261Z,5.70
2017-11-22T08:20:11.700Z,5.70
2017-11-22T08:22:40.386Z,5.90
2017-11-22T08:25:07.858Z,5.90
2017-11-22T08:27:34.206Z,5.90
2017-11-22T08:30:02.935Z,6.00
2017-11-22T08:32:29.921Z,6.00
2017-11-22T08:34:56.236Z,6.10
2017-11-22T08:37:23.708Z,6.20
2017-11-22T08:39:50.021Z,6.30
2017-11-22T08:42:17.426Z,6.40
2017-11-22T08:44:43.766Z,6.40
2017-11-22T08:47:10.109Z,6.40
2017-11-22T08:49:37.458Z,6.50
2017-11-22T08:52:04.749Z,6.50
2017-11-22T08:54:39.817Z,6.60
2017-11-22T08:57:12.220Z,6.50
2017-11-22T08:59:40.383Z,6.60
2017-11-22T09:02:07.353Z,6.70
2017-11-22T09:04:35.229Z,6.70
2017-11-22T09:07:04.534Z,6.80
2017-11-22T09:09:31.602Z,6.90
2017-11-22T09:12:04.364Z,6.90
2017-11-22T09:14:31.621Z,7.00
2017-11-22T09:16:57.930Z,7.10
2017-11-22T09:19:26.957Z,7.20
2017-11-22T09:21:53.297Z,7.30
2017-11-22T09:24:25.668Z,7.30
2017-11-22T09:26:53.637Z,7.30
2017-11-22T09:29:19.957Z,7.40
2017-11-22T09:31:52.318Z,7.40
2017-11-22T09:34:24.930Z,7.50
2017-11-22T09:36:51.259Z,7.50
2017-11-22T09:39:18.517Z,7.60
2017-11-22T09:41:45.778Z,7.60
2017-11-22T09:44:12.101Z,7.70
2017-11-22T09:46:38.434Z,7.80
2017-11-22T09:49:05.510Z,7.90
2017-11-22T09:51:31.841Z,7.90
2017-11-22T09:53:59.199Z,8.00
2017-11-22T09:56:27.245Z,8.00
2017-11-22T09:58:54.290Z,8.00
2017-11-22T10:01:20.619Z,8.10
2017-11-22T10:03:46.941Z,8.10
2017-11-22T10:06:14.365Z,8.30
2017-11-22T10:08:40.695Z,8.30
2017-11-22T10:11:07.101Z,8.40
2017-11-22T10:13:33.781Z,8.40
2017-11-22T10:16:00.092Z,8.50
2017-11-22T10:18:28.096Z,8.50
2017-11-22T10:20:54.572Z,8.60
2017-11-22T10:23:26.393Z,8.60
2017-11-22T10:25:53.518Z,8.60
2017-11-22T10:28:19.874Z,8.60
2017-11-22T10:30:46.205Z,8.70
2017-11-22T10:33:15.525Z,8.70
2017-11-22T10:35:41.866Z,8.80
2017-11-22T10:38:09.210Z,8.90
2017-11-22T10:40:35.541Z,8.90
2017-11-22T10:43:02.613Z,9.00
2017-11-22T10:45:28.941Z,9.10
2017-11-22T10:47:55.972Z,9.10
2017-11-22T10:50:23.049Z,9.10
2017-11-22T10:52:50.205Z,9.20
2017-11-22T10:55:16.552Z,9.20
2017-11-22T10:57:43.916Z,9.30
2017-11-22T11:00:10.253Z,9.40
2017-11-22T11:02:36.605Z,9.40
2017-11-22T11:05:03.993Z,9.50
2017-11-22T11:07:30.330Z,9.50
2017-11-22T11:09:56.769Z,9.60
2017-11-22T11:12:23.458Z,9.60
2017-11-22T11:14:49.794Z,9.70
2017-11-22T11:17:17.362Z,9.70
2017-11-22T11:19:43.698Z,9.80
2017-11-22T11:22:10.954Z,9.80
2017-11-22T11:24:37.261Z,9.90
2017-11-22T11:27:03.580Z,9.90
2017-11-22T11:29:29.952Z,10.00
2017-11-22T11:31:57.005Z,10.00
2017-11-22T11:34:23.353Z,10.00
2017-11-22T11:36:49.763Z,10.10
2017-11-22T11:39:17.146Z,10.10
2017-11-22T11:41:44.305Z,10.10
2017-11-22T11:44:11.357Z,10.20
2017-11-22T11:46:37.693Z,10.20
2017-11-22T11:49:04.977Z,10.20
2017-11-22T11:51:32.085Z,10.30
2017-11-22T11:53:59.260Z,10.20
2017-11-22T11:56:25.589Z,10.20
2017-11-22T11:58:51.940Z,10.20
2017-11-22T12:01:18.572Z,10.30
2017-11-22T12:03:44.962Z,10.30
2017-11-22T12:06:12.065Z,10.30
2017-11-22T12:08:38.381Z,10.40
2017-11-22T12:11:04.713Z,10.40
2017-11-22T12:13:31.283Z,10.50
2017-11-22T12:15:57.621Z,10.50
2017-11-22T12:18:24.673Z,10.50
2017-11-22T12:21:03.796Z,10.50
2017-11-22T12:23:30.123Z,10.50
2017-11-22T12:25:56.452Z,10.50
2017-11-22T12:28:23.122Z,10.50
2017-11-22T12:30:50.593Z,10.40
2017-11-22T12:33:16.916Z,10.40
2017-11-22T12:35:43.242Z,10.30
2017-11-22T12:38:10.644Z,10.30
2017-11-22T12:40:37.729Z,10.30
2017-11-22T12:43:04.812Z,10.40
2017-11-22T12:45:31.869Z,10.40
2017-11-22T12:47:59.651Z,10.40
2017-11-22T12:50:26.740Z,10.30
2017-11-22T12:52:53.766Z,10.30
2017-11-22T12:55:20.116Z,10.30
2017-11-22T12:57:53.065Z,10.30
2017-11-22T13:00:19.445Z,10.30
2017-11-22T13:02:46.646Z,10.30
2017-11-22T13:05:13.314Z,10.30
2017-11-22T13:07:39.668Z,10.30
2017-11-22T13:10:13.536Z,10.30
2017-11-22T13:12:40.196Z,10.30
2017-11-22T13:15:06.524Z,10.30
2017-11-22T13:17:34.197Z,10.20
2017-11-22T13:20:00.538Z,10.20
2017-11-22T13:22:26.876Z,10.10
2017-11-22T13:24:53.929Z,10.10
2017-11-22T13:27:21.330Z,9.90
2017-11-22T13:29:48.658Z,9.80
2017-11-22T13:32:20.580Z,9.60
2017-11-22T13:34:46.965Z,9.50
2017-11-22T13:37:13.316Z,9.30
2017-11-22T13:39:41.253Z,9.10
2017-11-22T13:42:08.782Z,9.10
2017-11-22T13:44:36.085Z,9.00
2017-11-22T13:47:03.242Z,8.90
2017-11-22T13:49:30.427Z,8.80
2017-11-22T13:51:58.465Z,8.70
2017-11-22T13:54:25.947Z,8.70
2017-11-22T13:56:54.107Z,8.70
2017-11-22T13:59:22.705Z,8.60
2017-11-22T14:01:50.666Z,8.50
2017-11-22T14:04:17.045Z,8.50
2017-11-22T14:06:43.426Z,8.50
2017-11-22T14:09:09.818Z,8.40
2017-11-22T14:11:36.927Z,8.40
2017-11-22T14:14:03.444Z,8.30
2017-11-22T14:16:30.739Z,8.30
2017-11-22T14:18:57.124Z,8.20
2017-11-22T14:21:23.491Z,8.10
2017-11-22T14:23:50.781Z,8.10
2017-11-22T14:26:17.157Z,8.10
2017-11-22T14:28:43.510Z,8.00
2017-11-22T14:31:11.004Z,7.90
2017-11-22T14:33:38.977Z,7.80
2017-11-22T14:36:06.749Z,7.80
2017-11-22T14:38:33.892Z,7.80
2017-11-22T14:41:01.053Z,7.70
2017-11-22T14:43:28.413Z,7.70
2017-11-22T14:45:54.773Z,7.60
2017-11-22T14:48:21.858Z,7.60
2017-11-22T14:50:48.962Z,7.50
2017-11-22T14:53:16.724Z,7.40
2017-11-22T14:55:43.084Z,7.40
2017-11-22T14:58:09.444Z,7.30
2017-11-22T15:00:36.888Z,7.30
2017-11-22T15:03:03.238Z,7.30
2017-11-22T15:05:30.457Z,7.20
2017-11-22T15:07:57.100Z,7.10
2017-11-22T15:10:23.460Z,7.10
2017-11-22T15:12:50.789Z,7.00
2017-11-22T15:15:17.178Z,6.90
2017-11-22T15:17:44.295Z,6.80
2017-11-22T15:20:11.118Z,6.80
2017-11-22T15:22:37.669Z,6.80
2017-11-22T15:25:04.122Z,6.80
2017-11-22T15:27:31.985Z,6.70
2017-11-22T15:29:59.322Z,6.70
2017-11-22T15:32:25.682Z,6.60
2017-11-22T15:34:52.733Z,6.60
2017-11-22T15:37:19.093Z,6.50
2017-11-22T15:39:46.021Z,6.50
2017-11-22T15:42:13.073Z,6.50
2017-11-22T15:44:39.388Z,6.40
2017-11-22T15:47:05.748Z,6.40
2017-11-22T15:49:32.406Z,6.30
2017-11-22T15:51:59.645Z,6.30
2017-11-22T15:54:25.985Z,6.30
2017-11-22T15:56:53.549Z,6.30
2017-11-22T15:59:20.700Z,6.30
2017-11-22T16:01:48.569Z,6.20
2017-11-22T16:04:14.939Z,6.20
2017-11-22T16:06:42.021Z,6.10
2017-11-22T16:09:09.122Z,6.10
2017-11-22T16:11:36.386Z,6.10
2017-11-22T16:14:02.742Z,6.10
2017-11-22T16:16:29.805Z,6.00
2017-11-22T16:18:57.322Z,6.00
2017-11-22T16:21:23.705Z,6.00
2017-11-22T16:23:51.540Z,5.90
2017-11-22T16:26:17.868Z,5.90
2017-11-22T16:28:44.221Z,5.80
2017-11-22T16:31:11.061Z,5.80
2017-11-22T16:33:38.113Z,5.70
2017-11-22T16:36:04.515Z,5.70
2017-11-22T16:38:31.809Z,5.70
2017-11-22T16:40:58.142Z,5.70
2017-11-22T16:43:25.203Z,5.70
2017-11-22T16:45:51.557Z,5.60
2017-11-22T16:48:19.667Z,5.60
2017-11-22T16:50:46.836Z,5.60
2017-11-22T16:53:14.125Z,5.60
2017-11-22T16:55:41.691Z,5.50
2017-11-22T16:58:08.042Z,5.50
2017-11-22T17:00:35.288Z,5.50
2017-11-22T17:03:03.978Z,5.50
2017-11-22T17:05:31.849Z,5.40
2017-11-22T17:07:59.922Z,5.50
2017-11-22T17:10:27.083Z,5.40
2017-11-22T17:13:10.712Z,5.40
2017-11-22T17:15:38.781Z,5.40
2017-11-22T17:18:06.250Z,5.40
2017-11-22T17:20:32.642Z,5.30
2017-11-22T17:22:58.982Z,5.30
2017-11-22T17:25:25.677Z,5.30
2017-11-22T17:27:54.395Z,5.20
2017-11-22T17:30:22.106Z,5.20
2017-11-22T17:32:49.283Z,5.20
2017-11-22T17:35:15.652Z,5.20
2017-11-22T17:37:43.484Z,5.20
2017-11-22T17:40:10.746Z,5.20
2017-11-22T17:42:39.257Z,5.20
2017-11-22T17:45:06.997Z,5.30
2017-11-22T17:47:34.101Z,5.20
2017-11-22T17:50:00.436Z,5.20
2017-11-22T17:52:27.748Z,5.30
2017-11-22T17:54:55.001Z,5.30
2017-11-22T17:57:21.333Z,5.30
2017-11-22T17:59:47.694Z,5.30
2017-11-22T18:02:15.566Z,5.30
2017-11-22T18:04:43.517Z,5.30
2017-11-22T18:07:10.678Z,5.30
2017-11-22T18:09:37.804Z,5.30
2017-11-22T18:12:04.156Z,5.20
2017-11-22T18:14:30.527Z,5.20
2017-11-22T18:16:57.970Z,5.30
2017-11-22T18:19:24.292Z,5.30
2017-11-22T18:21:50.677Z,5.30
2017-11-22T18:24:18.123Z,5.30
2017-11-22T18:26:46.178Z,5.30
2017-11-22T18:29:12.494Z,5.30
2017-11-22T18:31:38.870Z,5.30
2017-11-22T18:34:06.309Z,5.20
2017-11-22T18:36:32.663Z,5.20
2017-11-22T18:38:59.920Z,5.20
2017-11-22T18:41:26.985Z,5.20
2017-11-22T18:43:54.764Z,5.20
2017-11-22T18:46:22.657Z,5.10
2017-11-22T18:48:49.808Z,5.10
2017-11-22T18:51:16.913Z,5.10
2017-11-22T18:53:46.324Z,5.10
2017-11-22T18:56:13.369Z,5.10
2017-11-22T18:58:39.953Z,5.10
2017-11-22T19:01:07.790Z,5.10
2017-11-22T19:03:35.041Z,5.10
2017-11-22T19:06:02.761Z,5.10
2017-11-22T19:08:29.865Z,5.10
2017-11-22T19:10:56.237Z,5.10
2017-11-22T19:13:23.322Z,5.10
2017-11-22T19:15:50.014Z,5.10
2017-11-22T19:18:18.964Z,5.00
2017-11-22T19:20:45.415Z,5.00
2017-11-22T19:23:11.778Z,5.00
2017-11-22T19:25:38.849Z,4.90
2017-11-22T19:28:06.126Z,5.00
2017-11-22T19:30:32.500Z,5.00
2017-11-22T19:32:59.273Z,5.10
2017-11-22T19:35:26.491Z,5.10
2017-11-22T19:37:53.950Z,5.10
2017-11-22T19:40:21.194Z,5.00
2017-11-22T19:42:48.416Z,5.00
2017-11-22T19:45:15.480Z,5.00
2017-11-22T19:47:42.644Z,5.00
2017-11-22T19:50:10.479Z,4.90
2017-11-22T19:52:38.612Z,5.00
2017-11-22T19:55:05.029Z,5.00
2017-11-22T19:57:32.126Z,5.00
2017-11-22T19:59:59.625Z,5.00
2017-11-22T20:02:26.765Z,5.00
2017-11-22T20:04:54.123Z,5.00
2017-11-22T20:07:35.220Z,5.00
2017-11-22T20:10:03.224Z,4.90
2017-11-22T20:12:29.594Z,4.90
2017-11-22T20:14:56.934Z,4.90
2017-11-22T20:17:24.629Z,4.90
2017-11-22T20:19:51.890Z,4.90
2017-11-22T20:22:19.245Z,4.90
2017-11-22T20:24:45.626Z,4.90
2017-11-22T20:27:12.725Z,4.90
2017-11-22T20:29:39.379Z,4.90
2017-11-22T20:32:05.698Z,4.90
2017-11-22T20:34:32.335Z,4.90
2017-11-22T20:36:59.725Z,4.90
2017-11-22T20:39:26.889Z,4.90
2017-11-22T20:41:54.910Z,4.90
2017-11-22T20:44:22.422Z,4.90
2017-11-22T20:46:49.533Z,5.00
2017-11-22T20:49:16.734Z,4.90
2017-11-22T20:51:44.297Z,4.90
2017-11-22T20:54:10.674Z,4.90
2017-11-22T20:56:38.163Z,4.90
2017-11-22T20:59:05.268Z,4.90
2017-11-22T21:01:31.637Z,4.80
2017-11-22T21:03:58.581Z,4.80
2017-11-22T21:06:24.911Z,4.80
2017-11-22T21:08:51.293Z,4.80
2017-11-22T21:11:17.697Z,4.70
2017-11-22T21:13:44.093Z,4.80
2017-11-22T21:16:11.833Z,4.80
2017-11-22T21:18:39.232Z,4.80
2017-11-22T21:21:06.367Z,4.80
2017-11-22T21:23:32.734Z,4.80
2017-11-22T21:25:59.793Z,4.70
2017-11-22T21:28:27.121Z,4.80
2017-11-22T21:30:54.989Z,4.70
2017-11-22T21:33:21.386Z,4.70
2017-11-22T21:35:47.761Z,4.70
2017-11-22T21:38:15.015Z,4.70
2017-11-22T21:40:42.382Z,4.70
2017-11-22T21:43:10.285Z,4.70
2017-11-22T21:45:38.141Z,4.60
2017-11-22T21:48:04.455Z,4.60
2017-11-22T21:50:31.436Z,4.60
2017-11-22T21:52:59.295Z,4.50
2017-11-22T21:55:27.498Z,4.60
2017-11-22T21:57:55.333Z,4.50
2017-11-22T22:00:23.197Z,4.60
2017-11-22T22:02:49.502Z,4.60
2017-11-22T22:05:16.181Z,4.50
2017-11-22T22:07:42.517Z,4.50
2017-11-22T22:10:08.957Z,4.60
2017-11-22T22:12:35.700Z,4.70
2017-11-22T22:15:05.274Z,4.60
2017-11-22T22:17:32.470Z,4.60
2017-11-22T22:19:58.810Z,4.70
2017-11-22T22:22:25.130Z,4.70
2017-11-22T22:24:52.293Z,4.60
2017-11-22T22:27:18.670Z,4.60
2017-11-22T22:29:45.732Z,4.70
2017-11-22T22:32:12.529Z,4.70
2017-11-22T22:34:38.861Z,4.70
2017-11-22T22:37:06.021Z,4.70
2017-11-22T22:39:33.281Z,4.60
2017-11-22T22:42:00.282Z,4.60
2017-11-22T22:44:27.487Z,4.60
2017-11-22T22:46:54.648Z,4.60
2017-11-22T22:49:20.979Z,4.60
2017-11-22T22:51:48.453Z,4.50
2017-11-22T22:54:16.415Z,4.50
2017-11-22T22:56:42.753Z,4.50
2017-11-22T22:59:09.108Z,4.50
2017-11-22T23:01:35.730Z,4.50
2017-11-22T23:04:02.892Z,4.50
2017-11-22T23:06:29.962Z,4.60
2017-11-22T23:08:56.296Z,4.60
2017-11-22T23:11:22.654Z,4.60
2017-11-22T23:13:50.670Z,4.50
2017-11-22T23:16:17.721Z,4.50
2017-11-22T23:18:44.043Z,4.50
2017-11-22T23:21:10.373Z,4.50
2017-11-22T23:23:37.668Z,4.50
2017-11-22T23:26:03.998Z,4.40
2017-11-22T23:28:30.314Z,4.40
2017-11-22T23:30:56.988Z,4.40
2017-11-22T23:33:23.334Z,4.40
2017-11-22T23:35:51.257Z,4.30
2017-11-22T23:38:18.457Z,4.30
2017-11-22T23:40:44.794Z,4.30
2017-11-22T23:43:12.356Z,4.30
2017-11-22T23:45:39.381Z,4.30
2017-11-22T23:48:05.722Z,4.30
2017-11-22T23:50:32.796Z,4.30
2017-11-22T23:52:59.854Z,4.20
2017-11-22T23:55:26.188Z,4.20
2017-11-22T23:57:52.521Z,4.20
